Palm Beach, FL (33480)

10:18 PM EST on February 21, 2017 (GMT -0500)
Downtown | | Change Station

Elev 0 ft 26.71 °N, 80.05 °W | Updated 2 minutes ago

Mostly Cloudy
Mostly Cloudy
73.4 °F
Feels Like 75 °F
N
1.9
Wind Variable Wind from WSW
Gusts 3.1 mph

Today
High -- | Low -- °F
--% Chance of Precip.
Yesterday
High -- | Low -- °F
Precip. -- in
Pressure 29.97 in
Visibility 10.0 miles
Clouds Scattered Clouds 3000 ft
Mostly Cloudy 5000 ft
Heat Index 75 °F
Dew Point 64 °F
Humidity 71%
Rainfall Not available.
Snow Depth Not available.
6:51 AM 6:16 PM
Waning Crescent, 20% visible
METAR KPBI 220253Z 12012KT 10SM SCT030 BKN050 23/16 A2997 RMK AO2 SLP147 T02280161 56008
Pressure 29.97 in
Visibility 10.0 miles
Clouds Scattered Clouds 3000 ft
Mostly Cloudy 5000 ft
Heat Index 75 °F
Dew Point 64 °F
Humidity 71%
Rainfall Not available.
Snow Depth Not available.
6:51 AM 6:16 PM
Waning Crescent, 20% visible
METAR KPBI 220253Z 12012KT 10SM SCT030 BKN050 23/16 A2997 RMK AO2 SLP147 T02280161 56008

Get Your Daily Forecast Email!

Thanks for signing up!

Be on the lookout for a verification email in your inbox.

You'll start receiving the daily forecast at 8 AM.

×

10-Day Weather Forecast

Almanac

Astronomy

Feb. 21, 2017 Rise Set
Actual Time
Civil Twilight
Nautical Twilight
Astronomical Twilight
Moon
Length of Visible Light
Length of Day
Tomorrow will be .
, % of the Moon is Illuminated

Today's Extremes

State Highs State Lows

Community

WunderPhotos

Upload Photos

1,962,540 photos uploaded!

WunderBlog® & News

Nearby

Air Quality

  Air Quality AQ Index Pollutant
Not available.

Snow Depth

Station Depth Elevation

Earthquake Activity

City Distance Mag. Time & Date
Minimum magnitude displayed is 2.5.

Coastal Water Temperatures

Place Temperature

Stations

Nearby Weather Stations

Station Location Temp. Windchill Dew Point Humidity Wind Precip. Elev Updated Type
                   

Watches & Warnings

There are currently no watches in effect.